X  Close Metar Aviation Weather Data     KOMA Eppley Airfield
Temperature
79°F Temperature
52°F Dewpoint
39% Humidity



Wind
18 MPH
29 KM/H
8 M/S
16 KTS



160°
SSE
Current Conditions

Partly Cloudy Partly Cloudy
Pressure 1009.52 (hPa) - 29.81 (inHg)
Visibility 9.9 (mile) - 16 (km)
Airport
Airport-code KOMA

Location: Eppley Airfield
Distance: 20 (mi)

Metar:
KOMA 192052Z 16016G28KT 10SM FEW250 26/11 A2981 RMK AO2 PK WND 15028/2043 SLP088 T02560111 56017

Time: 10-19-2021 15:52 CDT